Time;durP1;ratioP1;P1;durP2;ratioP2;P2;SDS_P1;SDS_P2;PMS_P1;PMS_P2;Temp;Humidity;BMP_temperature;BMP_pressure;BME280_temperature;BME280_humidity;BME280_pressure;Samples;Min_cycle;Max_cycle;Signal;HPM_P1;HPM_P2
2023/04/15 00:00:29;;;;;;;25.87;23.27;;;8.20;81.00;;;;;;6287002;28;20534;-84
2023/04/15 00:03:33;;;;;;;31.50;25.60;;;8.20;81.10;;;;;;6289737;28;20235;-83
2023/04/15 00:06:38;;;;;;;28.43;24.97;;;8.30;81.20;;;;;;6290463;28;20233;-83
2023/04/15 00:09:43;;;;;;;29.57;26.40;;;8.20;81.10;;;;;;6297485;28;20263;-83
2023/04/15 00:12:48;;;;;;;27.40;24.50;;;8.20;81.20;;;;;;6290345;28;20438;-81
2023/04/15 00:15:52;;;;;;;31.30;26.77;;;8.20;81.30;;;;;;6315613;28;20320;-82
2023/04/15 00:18:55;;;;;;;31.73;25.53;;;8.20;81.20;;;;;;6307962;28;20248;-80
2023/04/15 00:22:00;;;;;;;29.73;25.87;;;8.20;81.10;;;;;;6312583;28;20351;-78
2023/04/15 00:25:05;;;;;;;29.07;25.97;;;8.20;81.10;;;;;;6304546;28;20228;-80
2023/04/15 00:28:08;;;;;;;29.70;25.90;;;8.20;81.10;;;;;;6321375;28;20213;-79
2023/04/15 00:31:11;;;;;;;29.07;25.93;;;8.20;81.00;;;;;;6298262;28;20238;-81
2023/04/15 00:34:15;;;;;;;29.47;26.20;;;8.20;81.10;;;;;;6290200;28;20813;-87
2023/04/15 00:37:18;;;;;;;33.20;27.80;;;8.30;80.80;;;;;;6288025;28;20226;-82
2023/04/15 00:40:25;;;;;;;30.63;25.73;;;8.20;81.00;;;;;;6289274;28;20239;-83
2023/04/15 00:43:28;;;;;;;34.10;27.63;;;8.20;81.10;;;;;;6284561;28;20261;-81
2023/04/15 00:46:33;;;;;;;34.87;27.40;;;8.20;81.10;;;;;;6287986;28;20494;-83
2023/04/15 00:49:36;;;;;;;34.23;27.70;;;8.20;81.30;;;;;;6290060;28;20236;-82
2023/04/15 00:52:39;;;;;;;37.50;29.40;;;8.20;81.10;;;;;;6306927;28;20241;-82
2023/04/15 00:55:45;;;;;;;33.03;28.07;;;8.20;81.10;;;;;;6306106;28;20307;-85
2023/04/15 00:58:48;;;;;;;34.27;27.87;;;8.20;81.10;;;;;;6289200;28;20237;-85
2023/04/15 01:01:51;;;;;;;34.43;28.93;;;8.30;81.00;;;;;;6280447;28;20316;-82
2023/04/15 01:04:56;;;;;;;34.57;27.40;;;8.20;80.90;;;;;;6288656;28;20316;-81
2023/04/15 01:07:59;;;;;;;36.23;28.30;;;8.20;81.00;;;;;;6289112;28;20244;-80
2023/04/15 01:11:04;;;;;;;35.17;27.90;;;8.20;81.10;;;;;;6288254;28;20427;-82
2023/04/15 01:14:08;;;;;;;33.97;27.37;;;8.20;81.10;;;;;;6289902;28;20236;-85
2023/04/15 01:17:12;;;;;;;35.93;29.60;;;8.20;81.10;;;;;;6291423;28;20537;-84
2023/04/15 01:20:15;;;;;;;34.17;26.53;;;8.20;81.10;;;;;;6288768;28;20692;-84
2023/04/15 01:23:18;;;;;;;37.10;30.63;;;8.20;81.10;;;;;;6289193;28;20377;-83
2023/04/15 01:26:23;;;;;;;35.33;28.50;;;8.20;81.10;;;;;;6293552;28;20736;-84
2023/04/15 01:29:27;;;;;;;34.53;27.67;;;8.20;81.10;;;;;;6289283;28;20305;-84
2023/04/15 01:32:30;;;;;;;39.20;30.67;;;8.20;81.10;;;;;;6284891;28;20263;-83
2023/04/15 01:35:33;;;;;;;37.73;29.80;;;8.20;81.10;;;;;;6295628;28;20872;-84
2023/04/15 01:38:37;;;;;;;36.37;29.83;;;8.20;81.00;;;;;;6298786;28;20233;-84
2023/04/15 01:41:42;;;;;;;39.00;31.10;;;8.20;81.10;;;;;;6282603;28;20243;-85
2023/04/15 01:44:45;;;;;;;41.90;31.40;;;8.20;81.10;;;;;;6289769;28;20883;-82
2023/04/15 01:47:48;;;;;;;35.67;27.57;;;8.20;80.90;;;;;;6291821;28;20239;-83
2023/04/15 01:50:52;;;;;;;39.83;31.37;;;8.20;80.90;;;;;;6294189;28;20237;-85
2023/04/15 01:53:55;;;;;;;39.03;29.73;;;8.20;80.80;;;;;;6304303;28;20267;-84
2023/04/15 01:57:01;;;;;;;40.30;29.30;;;8.20;80.90;;;;;;6292251;28;20405;-83
2023/04/15 02:00:06;;;;;;;45.33;33.10;;;8.20;80.90;;;;;;6293404;28;20241;-83
2023/04/15 02:03:09;;;;;;;39.03;29.73;;;8.20;80.90;;;;;;6293588;28;20310;-82
2023/04/15 02:06:13;;;;;;;41.30;30.80;;;8.20;81.00;;;;;;6292858;28;20294;-83
2023/04/15 02:09:16;;;;;;;42.50;31.97;;;8.20;81.10;;;;;;6288591;28;20316;-87
2023/04/15 02:12:20;;;;;;;45.40;32.07;;;8.20;81.10;;;;;;6293014;28;20319;-85
2023/04/15 02:15:24;;;;;;;38.67;30.53;;;8.20;81.00;;;;;;6289310;28;20234;-84
2023/04/15 02:18:27;;;;;;;46.40;31.57;;;8.10;81.10;;;;;;6297966;28;20316;-82
2023/04/15 02:21:30;;;;;;;42.60;30.43;;;8.10;81.20;;;;;;6300490;28;20243;-82
2023/04/15 02:24:34;;;;;;;39.17;30.97;;;8.10;81.10;;;;;;6296560;28;20728;-80
2023/04/15 02:27:38;;;;;;;42.80;31.83;;;8.10;81.10;;;;;;6300280;28;20237;-86
2023/04/15 02:30:41;;;;;;;43.60;32.73;;;8.20;81.10;;;;;;6301959;28;20241;-83
2023/04/15 02:33:45;;;;;;;42.20;31.13;;;8.10;81.10;;;;;;6299187;28;20241;-83
2023/04/15 02:36:48;;;;;;;46.43;32.70;;;8.20;81.10;;;;;;6292561;28;20241;-85
2023/04/15 02:39:51;;;;;;;46.40;32.67;;;8.10;81.10;;;;;;6307082;28;20289;-79
2023/04/15 02:42:56;;;;;;;46.27;33.40;;;8.10;81.10;;;;;;6320587;28;20277;-80
2023/04/15 02:45:59;;;;;;;44.40;32.17;;;8.20;81.20;;;;;;6309282;28;20231;-77
2023/04/15 02:49:02;;;;;;;43.23;30.53;;;8.10;81.20;;;;;;6320032;28;20221;-77
2023/04/15 02:52:05;;;;;;;42.93;31.07;;;8.20;81.10;;;;;;6317697;28;20419;-78
2023/04/15 02:55:09;;;;;;;41.87;29.77;;;8.10;81.20;;;;;;6287901;28;20328;-81
2023/04/15 02:58:14;;;;;;;40.10;29.77;;;8.20;81.10;;;;;;6290466;28;20254;-82
2023/04/15 03:01:17;;;;;;;42.13;30.10;;;8.20;81.10;;;;;;6280858;28;20237;-81
2023/04/15 03:04:20;;;;;;;40.13;30.17;;;8.20;81.10;;;;;;6287382;28;20233;-85
2023/04/15 03:07:24;;;;;;;36.27;27.47;;;8.20;81.10;;;;;;6290047;28;20346;-84
2023/04/15 03:10:27;;;;;;;38.90;28.43;;;8.20;81.10;;;;;;6291465;28;20722;-83
2023/04/15 03:13:31;;;;;;;38.27;29.87;;;8.20;81.10;;;;;;6284852;28;20304;-84
2023/04/15 03:16:35;;;;;;;38.73;29.17;;;8.20;81.10;;;;;;6274220;28;20252;-84
2023/04/15 03:19:38;;;;;;;33.97;26.67;;;8.20;81.20;;;;;;6288825;28;20239;-82
2023/04/15 03:22:41;;;;;;;35.13;27.10;;;8.20;81.10;;;;;;6289485;28;20241;-82
2023/04/15 03:25:45;;;;;;;41.70;30.80;;;8.30;81.20;;;;;;6289858;28;20616;-81
2023/04/15 03:28:50;;;;;;;34.87;26.63;;;8.20;81.20;;;;;;6284363;28;20620;-83
2023/04/15 03:31:53;;;;;;;35.57;27.23;;;8.30;81.10;;;;;;6293914;28;20269;-79
2023/04/15 03:34:56;;;;;;;36.83;28.67;;;8.30;81.10;;;;;;6289618;28;20257;-81
2023/04/15 03:37:59;;;;;;;33.00;25.37;;;8.30;81.20;;;;;;6284680;28;20252;-78
2023/04/15 03:41:02;;;;;;;41.33;30.67;;;8.30;81.00;;;;;;6285967;28;20699;-81
2023/04/15 03:44:07;;;;;;;33.73;26.37;;;8.30;81.00;;;;;;6287536;28;20225;-80
2023/04/15 03:47:10;;;;;;;36.63;29.20;;;8.30;81.00;;;;;;6287958;28;20243;-81
2023/04/15 03:50:13;;;;;;;36.20;27.70;;;8.30;81.10;;;;;;6286494;28;20326;-82
2023/04/15 03:53:16;;;;;;;37.27;27.77;;;8.30;81.10;;;;;;6278112;28;20237;-80
2023/04/15 03:56:19;;;;;;;36.07;28.23;;;8.30;81.10;;;;;;6288679;28;20240;-81
2023/04/15 03:59:24;;;;;;;34.70;26.73;;;8.40;81.10;;;;;;6280381;28;20241;-79
2023/04/15 04:02:27;;;;;;;35.80;27.63;;;8.40;81.00;;;;;;6280338;28;20652;-81
2023/04/15 04:05:31;;;;;;;35.97;26.97;;;8.40;81.00;;;;;;6285697;28;20240;-79
2023/04/15 04:08:34;;;;;;;36.27;27.33;;;8.40;81.00;;;;;;6285222;28;20229;-81
2023/04/15 04:11:37;;;;;;;33.03;26.70;;;8.50;80.90;;;;;;6286811;28;20298;-80
2023/04/15 04:14:42;;;;;;;33.33;26.20;;;8.50;80.90;;;;;;6286368;28;20229;-81
2023/04/15 04:17:45;;;;;;;36.30;26.23;;;8.50;80.90;;;;;;6285167;28;20434;-82
2023/04/15 04:20:48;;;;;;;31.37;25.07;;;8.50;80.90;;;;;;6286847;28;20245;-80
2023/04/15 04:23:51;;;;;;;32.33;25.57;;;8.50;80.90;;;;;;6278295;28;20282;-82
2023/04/15 04:26:55;;;;;;;36.67;27.37;;;8.50;80.80;;;;;;6286899;28;20237;-80
2023/04/15 04:29:59;;;;;;;32.63;26.57;;;8.50;80.90;;;;;;6284078;28;20232;-80
2023/04/15 04:33:06;;;;;;;30.97;25.80;;;8.50;80.80;;;;;;6281161;28;20242;-83
2023/04/15 04:36:09;;;;;;;31.00;25.17;;;8.60;80.80;;;;;;6287383;28;20256;-82
2023/04/15 04:39:12;;;;;;;36.77;25.83;;;8.60;80.70;;;;;;6279967;28;20306;-81
2023/04/15 04:42:16;;;;;;;28.27;24.57;;;8.60;80.80;;;;;;6286854;28;20269;-80
2023/04/15 04:45:21;;;;;;;32.23;25.23;;;8.60;80.70;;;;;;6286690;28;20283;-83
2023/04/15 04:48:24;;;;;;;32.97;26.30;;;8.60;80.70;;;;;;6277470;28;20236;-78
2023/04/15 04:51:27;;;;;;;26.43;23.43;;;8.60;80.70;;;;;;6310040;28;20225;-79
2023/04/15 04:54:31;;;;;;;31.87;26.40;;;8.60;80.70;;;;;;6296891;28;20236;-80
2023/04/15 04:57:34;;;;;;;28.17;24.33;;;8.60;80.70;;;;;;6299020;28;20252;-78
2023/04/15 05:00:40;;;;;;;31.47;25.53;;;8.60;80.70;;;;;;6301329;28;20241;-81
2023/04/15 05:03:44;;;;;;;30.30;24.83;;;8.70;80.60;;;;;;6296761;28;20545;-81
2023/04/15 05:06:47;;;;;;;30.33;24.43;;;8.70;80.60;;;;;;6298757;28;20245;-76
2023/04/15 05:09:51;;;;;;;30.77;24.13;;;8.80;80.60;;;;;;6307193;28;20260;-78
2023/04/15 05:12:54;;;;;;;35.53;26.17;;;8.80;80.60;;;;;;6298227;28;20320;-80
2023/04/15 05:15:58;;;;;;;31.37;23.90;;;8.80;80.50;;;;;;6299260;28;20692;-80
2023/04/15 05:19:01;;;;;;;25.87;22.40;;;8.80;80.50;;;;;;6299920;28;20241;-79
2023/04/15 05:22:07;;;;;;;26.63;23.83;;;8.90;80.40;;;;;;6297732;28;20237;-78
2023/04/15 05:25:11;;;;;;;29.30;22.77;;;8.90;80.30;;;;;;6294839;28;20242;-80
2023/04/15 05:28:14;;;;;;;25.40;21.77;;;8.90;80.30;;;;;;6302794;28;20319;-79
2023/04/15 05:31:18;;;;;;;28.97;23.13;;;9.00;80.20;;;;;;6301546;28;20241;-80
2023/04/15 05:34:22;;;;;;;23.03;20.57;;;9.00;80.10;;;;;;6300272;28;20308;-78
2023/04/15 05:37:25;;;;;;;23.27;20.27;;;9.00;80.20;;;;;;6303645;28;20629;-79
2023/04/15 05:40:28;;;;;;;23.83;19.60;;;9.00;80.10;;;;;;6300952;28;20243;-79
2023/04/15 05:43:31;;;;;;;19.77;17.70;;;9.10;80.10;;;;;;6298844;28;20213;-79
2023/04/15 05:46:36;;;;;;;20.83;18.63;;;9.10;80.10;;;;;;6305195;28;20233;-79
2023/04/15 05:49:39;;;;;;;19.60;17.63;;;9.20;80.00;;;;;;6305489;28;20229;-80
2023/04/15 05:52:42;;;;;;;22.07;19.70;;;9.20;79.90;;;;;;6294819;28;20319;-79
2023/04/15 05:55:45;;;;;;;20.53;18.43;;;9.20;79.80;;;;;;6305937;28;20290;-77
2023/04/15 05:58:48;;;;;;;20.70;18.57;;;9.30;79.50;;;;;;6313532;28;20325;-81
2023/04/15 06:01:56;;;;;;;19.70;17.57;;;9.40;79.30;;;;;;6289266;28;20241;-81
2023/04/15 06:05:02;;;;;;;20.97;18.83;;;9.40;79.20;;;;;;6291657;28;20225;-81
2023/04/15 06:08:06;;;;;;;18.87;17.10;;;9.50;79.10;;;;;;6290220;28;20248;-80
2023/04/15 06:11:09;;;;;;;20.03;16.20;;;9.60;78.90;;;;;;6266272;28;20239;-82
2023/04/15 06:14:12;;;;;;;18.13;16.43;;;9.70;78.60;;;;;;6290417;28;20229;-78
2023/04/15 06:17:17;;;;;;;19.27;17.30;;;9.70;78.20;;;;;;6289377;28;20244;-79
2023/04/15 06:20:20;;;;;;;18.70;16.90;;;9.80;78.00;;;;;;6291043;28;20311;-81
2023/04/15 06:23:24;;;;;;;17.57;15.97;;;9.80;77.90;;;;;;6290814;28;20528;-82
2023/04/15 06:26:30;;;;;;;17.37;15.53;;;9.80;77.70;;;;;;6286663;28;20225;-82
2023/04/15 06:29:33;;;;;;;17.40;15.67;;;9.90;77.60;;;;;;6290730;28;20225;-81
2023/04/15 06:32:37;;;;;;;17.10;15.40;;;10.00;77.30;;;;;;6290296;28;20320;-83
2023/04/15 06:35:40;;;;;;;16.93;15.40;;;10.00;77.00;;;;;;6286589;28;20312;-81
2023/04/15 06:38:43;;;;;;;15.27;13.87;;;10.00;77.20;;;;;;6289233;28;20725;-79
2023/04/15 06:41:47;;;;;;;14.80;13.50;;;10.10;77.10;;;;;;6288372;28;20240;-82
2023/04/15 06:44:50;;;;;;;15.93;14.43;;;10.20;77.00;;;;;;6282889;28;20225;-80
2023/04/15 06:47:54;;;;;;;15.80;14.27;;;10.20;76.70;;;;;;6292589;28;20255;-80
2023/04/15 06:50:58;;;;;;;15.73;14.30;;;10.30;76.10;;;;;;6293696;28;20743;-77
2023/04/15 06:54:01;;;;;;;17.87;14.40;;;10.40;76.00;;;;;;6316806;28;20237;-78
2023/04/15 06:57:04;;;;;;;15.77;14.27;;;10.40;75.70;;;;;;6319496;28;20213;-79
2023/04/15 07:00:10;;;;;;;14.33;13.13;;;10.50;75.20;;;;;;6328155;28;20236;-76
2023/04/15 07:03:14;;;;;;;15.23;13.93;;;10.60;75.10;;;;;;6308265;28;20222;-77
2023/04/15 07:06:17;;;;;;;15.13;13.93;;;10.80;75.00;;;;;;6319240;28;20500;-75
2023/04/15 07:09:20;;;;;;;15.00;13.77;;;10.80;74.50;;;;;;6319502;28;20229;-77
2023/04/15 07:12:23;;;;;;;15.27;13.97;;;10.90;74.20;;;;;;6311840;28;20681;-81
2023/04/15 07:15:26;;;;;;;14.67;13.37;;;10.90;74.10;;;;;;6293483;28;20229;-79
2023/04/15 07:18:31;;;;;;;13.13;12.10;;;11.00;73.70;;;;;;6292400;28;20230;-82
2023/04/15 07:21:34;;;;;;;13.47;12.07;;;11.00;73.70;;;;;;6287470;28;20629;-79
2023/04/15 07:24:37;;;;;;;13.67;12.67;;;11.00;73.60;;;;;;6290018;28;20225;-83
2023/04/15 07:27:40;;;;;;;14.80;13.40;;;11.00;73.20;;;;;;6299392;28;20237;-81
2023/04/15 07:30:43;;;;;;;14.50;13.23;;;10.90;73.20;;;;;;6313531;28;20240;-77
2023/04/15 07:33:48;;;;;;;13.57;12.63;;;10.90;73.00;;;;;;6318772;28;20233;-78
2023/04/15 07:36:51;;;;;;;15.13;13.83;;;10.90;73.40;;;;;;6316012;28;20222;-76
2023/04/15 07:39:54;;;;;;;14.50;13.37;;;10.90;72.80;;;;;;6317093;28;20213;-78
2023/04/15 07:42:57;;;;;;;13.90;12.77;;;10.80;73.30;;;;;;6319063;28;20228;-78
2023/04/15 07:46:00;;;;;;;14.77;13.50;;;10.80;73.40;;;;;;6318923;28;20294;-75
2023/04/15 07:49:06;;;;;;;15.57;14.13;;;10.70;73.40;;;;;;6310151;28;20225;-79
2023/04/15 07:52:09;;;;;;;14.97;13.67;;;10.70;73.30;;;;;;6317569;28;20268;-78
2023/04/15 07:55:18;;;;;;;15.13;13.73;;;10.60;72.90;;;;;;6316012;28;20754;-79
2023/04/15 07:58:21;;;;;;;15.17;13.87;;;10.50;73.20;;;;;;6285450;28;20635;-81
2023/04/15 08:01:25;;;;;;;15.20;13.80;;;10.30;73.80;;;;;;6288199;28;20242;-83
2023/04/15 08:04:30;;;;;;;14.33;13.10;;;10.30;74.10;;;;;;6281947;28;20229;-79
2023/04/15 08:07:33;;;;;;;15.73;14.43;;;10.40;74.10;;;;;;6283956;28;20324;-80
2023/04/15 08:10:37;;;;;;;15.83;14.33;;;10.50;73.90;;;;;;6288994;28;20289;-80
2023/04/15 08:13:41;;;;;;;15.13;13.93;;;10.50;73.90;;;;;;6287784;28;20236;-78
2023/04/15 08:16:44;;;;;;;15.73;14.43;;;10.50;73.90;;;;;;6288127;28;20722;-80
2023/04/15 08:19:48;;;;;;;16.53;14.87;;;10.50;73.70;;;;;;6287395;28;20221;-81
2023/04/15 08:22:52;;;;;;;16.73;15.23;;;10.50;73.90;;;;;;6284714;28;20225;-80
2023/04/15 08:25:56;;;;;;;17.60;16.10;;;10.50;73.90;;;;;;6287945;28;20237;-80
2023/04/15 08:28:59;;;;;;;18.00;16.53;;;10.40;74.10;;;;;;6283981;28;20238;-81
2023/04/15 08:32:02;;;;;;;16.23;14.73;;;10.40;74.70;;;;;;6302561;28;20474;-80
2023/04/15 08:35:08;;;;;;;18.27;15.83;;;10.40;74.80;;;;;;6288132;28;20270;-80
2023/04/15 08:38:11;;;;;;;17.20;15.70;;;10.40;74.60;;;;;;6281694;28;20240;-81
2023/04/15 08:41:22;;;;;;;16.33;14.93;;;10.50;74.30;;;;;;6287082;28;20256;-78
2023/04/15 08:44:26;;;;;;;17.10;15.53;;;10.50;74.30;;;;;;6291321;28;20263;-84
2023/04/15 08:47:31;;;;;;;17.30;15.90;;;10.60;74.40;;;;;;6278181;28;20244;-82
2023/04/15 08:50:36;;;;;;;17.47;15.83;;;10.60;74.20;;;;;;6282259;28;20718;-81
2023/04/15 08:53:40;;;;;;;17.27;15.77;;;10.50;74.40;;;;;;6286135;28;20225;-81
2023/04/15 08:56:43;;;;;;;17.43;15.63;;;10.60;74.20;;;;;;6280356;28;20240;-79
2023/04/15 08:59:47;;;;;;;17.20;15.70;;;10.50;74.60;;;;;;6286825;28;20350;-81
2023/04/15 09:02:50;;;;;;;17.17;15.77;;;10.60;74.60;;;;;;6280436;28;20276;-82
2023/04/15 09:05:56;;;;;;;16.70;15.23;;;10.60;74.50;;;;;;6284270;28;20229;-80
2023/04/15 09:08:59;;;;;;;15.80;14.60;;;10.60;74.70;;;;;;6287292;28;20538;-80
2023/04/15 09:12:02;;;;;;;17.10;15.57;;;10.60;74.90;;;;;;6284911;28;20331;-81
2023/04/15 09:15:08;;;;;;;16.60;15.30;;;10.70;74.80;;;;;;6286849;28;20305;-77
2023/04/15 09:18:12;;;;;;;17.37;15.73;;;10.70;74.90;;;;;;6285364;28;20763;-80
2023/04/15 09:21:18;;;;;;;15.60;14.33;;;10.80;75.00;;;;;;6286072;28;20244;-81
2023/04/15 09:24:21;;;;;;;16.73;15.43;;;10.90;74.90;;;;;;6279458;28;20239;-80
2023/04/15 09:27:25;;;;;;;16.97;15.50;;;10.90;74.20;;;;;;6284260;28;20263;-82
2023/04/15 09:30:29;;;;;;;15.97;14.57;;;10.90;74.20;;;;;;6290472;28;20241;-80
2023/04/15 09:33:32;;;;;;;16.77;15.30;;;10.90;74.30;;;;;;6286909;28;20252;-81
2023/04/15 09:36:53;;;;;;;16.27;14.87;;;10.90;74.20;;;;;;6282181;28;20248;-80
2023/04/15 09:39:57;;;;;;;15.33;13.93;;;10.90;74.40;;;;;;6286268;28;20363;-78
2023/04/15 09:43:00;;;;;;;15.57;14.47;;;10.90;74.40;;;;;;6279232;28;20237;-81
2023/04/15 09:46:03;;;;;;;16.03;14.63;;;11.00;74.60;;;;;;6281911;28;20328;-81
2023/04/15 09:49:10;;;;;;;15.90;14.37;;;11.00;74.40;;;;;;6287576;28;20259;-83
2023/04/15 09:52:15;;;;;;;15.67;14.50;;;11.00;73.80;;;;;;6298867;28;20280;-81
2023/04/15 09:55:19;;;;;;;15.13;13.93;;;10.90;74.50;;;;;;6292260;28;20244;-81
2023/04/15 09:58:23;;;;;;;15.80;14.50;;;10.90;74.30;;;;;;6288639;28;20237;-82
2023/04/15 10:01:26;;;;;;;15.07;13.87;;;10.90;74.40;;;;;;6288564;28;20251;-81
2023/04/15 10:04:30;;;;;;;15.43;13.93;;;10.90;74.60;;;;;;6284464;28;20261;-80
2023/04/15 10:07:35;;;;;;;15.23;14.03;;;10.90;74.50;;;;;;6286746;28;20234;-80
2023/04/15 10:10:38;;;;;;;14.20;13.10;;;10.80;74.80;;;;;;6282942;28;20372;-81
2023/04/15 10:13:42;;;;;;;15.13;13.97;;;10.80;74.80;;;;;;6292736;28;20256;-80
2023/04/15 10:16:48;;;;;;;15.67;14.27;;;10.80;75.00;;;;;;6290984;28;20469;-80
2023/04/15 10:19:54;;;;;;;15.73;14.43;;;10.80;75.00;;;;;;6285382;28;20300;-78
2023/04/15 10:22:58;;;;;;;14.93;13.57;;;10.80;75.40;;;;;;6290442;28;20255;-81
2023/04/15 10:26:04;;;;;;;14.10;13.03;;;10.80;75.40;;;;;;6291437;28;20316;-78
2023/04/15 10:29:08;;;;;;;15.43;14.13;;;10.80;75.40;;;;;;6291137;28;20241;-80
2023/04/15 10:32:12;;;;;;;15.30;14.13;;;10.90;75.40;;;;;;6290444;28;20240;-78
2023/04/15 10:35:17;;;;;;;13.93;12.83;;;10.90;75.40;;;;;;6279690;28;20704;-81
2023/04/15 10:38:35;;;;;;;14.97;13.97;;;11.00;75.50;;;;;;6290255;28;20456;-82
2023/04/15 10:41:38;;;;;;;13.73;12.53;;;11.00;75.40;;;;;;6289633;28;20238;-80
2023/04/15 10:44:43;;;;;;;14.43;13.33;;;11.00;75.60;;;;;;6286723;27;20256;-79
2023/04/15 10:47:46;;;;;;;14.07;12.93;;;11.10;75.60;;;;;;6290347;28;20504;-80
2023/04/15 10:50:57;;;;;;;14.67;13.40;;;11.10;75.80;;;;;;6291377;28;20397;-81
2023/04/15 10:54:01;;;;;;;14.80;13.60;;;11.30;75.70;;;;;;6284949;28;20316;-81
2023/04/15 10:57:13;;;;;;;14.87;13.73;;;11.40;75.10;;;;;;6291020;28;20234;-79
2023/04/15 11:00:19;;;;;;;13.20;12.30;;;11.40;75.20;;;;;;6288926;28;20648;-80
2023/04/15 11:03:37;;;;;;;14.20;13.10;;;11.40;75.30;;;;;;6281376;28;20260;-82
2023/04/15 11:06:45;;;;;;;14.77;13.50;;;11.50;75.30;;;;;;6290728;28;20611;-79
2023/04/15 11:09:49;;;;;;;15.13;14.03;;;11.50;75.10;;;;;;6291282;28;20229;-81
2023/04/15 11:12:53;;;;;;;15.40;14.03;;;11.50;74.80;;;;;;6284394;28;20232;-81
2023/04/15 11:16:01;;;;;;;14.63;13.47;;;11.30;75.20;;;;;;6287928;28;20622;-82
2023/04/15 11:19:04;;;;;;;14.10;13.00;;;11.20;75.60;;;;;;6289733;28;20251;-81
2023/04/15 11:22:09;;;;;;;15.20;14.00;;;11.20;75.60;;;;;;6284957;28;20234;-83
2023/04/15 11:25:22;;;;;;;14.57;13.37;;;11.10;75.40;;;;;;6288479;28;20245;-83
2023/04/15 11:28:27;;;;;;;13.97;12.90;;;11.10;75.90;;;;;;6280628;28;20382;-80
2023/04/15 11:31:31;;;;;;;14.50;13.30;;;11.10;76.00;;;;;;6279348;28;20662;-80
2023/04/15 11:34:35;;;;;;;15.80;14.40;;;11.00;76.20;;;;;;6288576;28;20314;-79
2023/04/15 11:37:38;;;;;;;16.07;14.73;;;11.00;76.40;;;;;;6287400;28;20241;-80
2023/04/15 11:40:43;;;;;;;16.00;14.60;;;11.00;76.60;;;;;;6283412;28;20233;-79
2023/04/15 11:43:49;;;;;;;16.70;15.23;;;11.00;76.50;;;;;;6288468;28;20232;-81
2023/04/15 11:46:52;;;;;;;15.03;13.83;;;11.10;76.40;;;;;;6287824;28;20234;-81
2023/04/15 11:49:56;;;;;;;15.17;13.97;;;11.00;76.50;;;;;;6286207;28;20248;-80
2023/04/15 11:53:01;;;;;;;15.70;14.40;;;11.00;76.70;;;;;;6282166;28;20705;-79
2023/04/15 11:56:07;;;;;;;14.53;13.30;;;11.00;76.70;;;;;;6287591;28;20261;-81
2023/04/15 11:59:10;;;;;;;15.17;13.70;;;11.10;76.50;;;;;;6286875;28;20229;-81
2023/04/15 12:02:14;;;;;;;14.90;13.77;;;11.00;76.60;;;;;;6287641;28;20849;-81
2023/04/15 12:05:17;;;;;;;14.07;12.87;;;11.00;76.60;;;;;;6290470;28;20252;-81
2023/04/15 12:08:20;;;;;;;14.07;13.00;;;11.10;76.70;;;;;;6288760;28;20267;-79
2023/04/15 12:11:33;;;;;;;14.20;13.07;;;11.10;76.90;;;;;;6289832;28;20638;-81
2023/04/15 12:14:41;;;;;;;13.70;12.50;;;11.10;77.00;;;;;;6290399;28;20245;-77
2023/04/15 12:17:45;;;;;;;12.50;11.60;;;11.10;76.70;;;;;;6315606;28;20236;-76
2023/04/15 12:20:53;;;;;;;13.07;12.07;;;11.10;76.90;;;;;;6306116;28;20652;-81
2023/04/15 12:23:57;;;;;;;13.70;12.60;;;11.30;76.90;;;;;;6284632;28;20248;-81
2023/04/15 12:27:05;;;;;;;13.30;12.20;;;11.30;76.90;;;;;;6287836;28;20262;-81
2023/04/15 12:30:10;;;;;;;13.60;12.37;;;11.40;76.70;;;;;;6287783;28;20225;-79
2023/04/15 12:33:13;;;;;;;14.83;13.53;;;11.50;76.80;;;;;;6284915;28;20838;-78
2023/04/15 12:36:16;;;;;;;13.47;12.53;;;11.60;76.90;;;;;;6286160;28;20347;-80
2023/04/15 12:39:22;;;;;;;13.03;12.03;;;11.70;76.30;;;;;;6289132;28;20255;-79
2023/04/15 12:42:27;;;;;;;13.83;12.60;;;11.70;76.30;;;;;;6283694;28;20248;-82
2023/04/15 12:45:38;;;;;;;10.97;10.17;;;11.70;76.20;;;;;;6284575;28;20253;-76
2023/04/15 12:48:42;;;;;;;12.30;11.33;;;11.70;76.40;;;;;;6292438;28;20568;-81
2023/04/15 12:51:45;;;;;;;10.53;9.93;;;11.90;76.30;;;;;;6290494;28;20252;-79
2023/04/15 12:54:48;;;;;;;12.20;11.13;;;11.90;76.20;;;;;;6288636;28;20235;-80
2023/04/15 12:57:53;;;;;;;12.47;11.57;;;12.00;75.80;;;;;;6287669;28;20635;-80
2023/04/15 13:00:56;;;;;;;11.40;10.60;;;12.00;75.00;;;;;;6287252;28;20267;-82
2023/04/15 13:03:59;;;;;;;11.13;10.33;;;11.90;75.40;;;;;;6287921;28;20247;-79
2023/04/15 13:07:03;;;;;;;11.77;10.87;;;11.90;75.20;;;;;;6285099;28;20259;-80
2023/04/15 13:10:07;;;;;;;11.10;10.33;;;11.90;75.60;;;;;;6287153;28;20233;-79
2023/04/15 13:13:11;;;;;;;10.63;9.83;;;11.80;75.50;;;;;;6280090;28;20297;-79
2023/04/15 13:16:15;;;;;;;11.53;10.63;;;11.70;75.70;;;;;;6287257;28;20240;-81
2023/04/15 13:19:18;;;;;;;10.53;9.83;;;11.70;75.70;;;;;;6281760;28;20480;-79
2023/04/15 13:22:21;;;;;;;10.27;9.67;;;11.60;75.90;;;;;;6287745;28;20451;-80
2023/04/15 13:25:25;;;;;;;11.17;10.47;;;11.50;76.10;;;;;;6288682;28;20323;-82
2023/04/15 13:28:29;;;;;;;11.30;10.20;;;11.50;76.20;;;;;;6274297;28;20232;-80
2023/04/15 13:31:32;;;;;;;11.50;10.70;;;11.50;76.50;;;;;;6287832;28;20336;-82
2023/04/15 13:34:35;;;;;;;9.63;9.00;;;11.40;76.70;;;;;;6288308;28;20644;-81
2023/04/15 13:37:39;;;;;;;9.60;9.07;;;11.40;76.90;;;;;;6278863;28;20629;-81
2023/04/15 13:40:42;;;;;;;10.87;9.97;;;11.50;77.00;;;;;;6315017;28;20234;-82
2023/04/15 13:43:47;;;;;;;10.70;9.90;;;11.60;76.70;;;;;;6281662;28;20248;-82
2023/04/15 13:46:50;;;;;;;10.33;9.47;;;11.70;76.10;;;;;;6300210;28;20255;-81
2023/04/15 13:49:55;;;;;;;11.23;10.50;;;11.60;76.20;;;;;;6292879;28;20228;-79
2023/04/15 13:52:58;;;;;;;9.90;9.30;;;11.50;76.40;;;;;;6291649;28;20244;-77
2023/04/15 13:56:01;;;;;;;11.43;10.43;;;11.50;76.50;;;;;;6291595;28;20607;-80
2023/04/15 13:59:07;;;;;;;10.17;9.40;;;11.40;76.70;;;;;;6286722;28;20238;-80
2023/04/15 14:02:11;;;;;;;10.10;9.50;;;11.40;76.80;;;;;;6290808;28;20247;-79
2023/04/15 14:05:14;;;;;;;9.53;8.87;;;11.40;76.60;;;;;;6291895;28;20233;-79
2023/04/15 14:08:17;;;;;;;8.87;8.37;;;11.40;76.70;;;;;;6286387;28;20308;-80
2023/04/15 14:11:20;;;;;;;8.53;8.13;;;11.30;76.70;;;;;;6291524;28;20241;-79
2023/04/15 14:14:24;;;;;;;8.03;7.63;;;11.30;76.70;;;;;;6292732;28;20240;-79
2023/04/15 14:17:30;;;;;;;7.87;7.47;;;11.30;76.80;;;;;;6290512;28;20253;-82
2023/04/15 14:20:34;;;;;;;9.53;9.00;;;11.30;76.90;;;;;;6275020;28;20264;-82
2023/04/15 14:23:37;;;;;;;8.27;7.87;;;11.30;76.90;;;;;;6288605;28;20456;-81
2023/04/15 14:26:40;;;;;;;9.60;9.00;;;11.20;77.20;;;;;;6289760;28;20237;-81
2023/04/15 14:29:44;;;;;;;9.73;9.13;;;11.20;77.10;;;;;;6290262;28;20256;-79
2023/04/15 14:32:48;;;;;;;9.20;8.70;;;11.20;77.10;;;;;;6283998;28;20240;-78
2023/04/15 14:35:51;;;;;;;9.30;8.70;;;11.20;77.10;;;;;;6284864;28;20362;-79
2023/04/15 14:38:55;;;;;;;8.83;8.33;;;11.10;77.20;;;;;;6288772;28;20229;-81
2023/04/15 14:41:58;;;;;;;9.53;8.90;;;11.10;77.70;;;;;;6287652;28;20237;-82
2023/04/15 14:45:02;;;;;;;8.80;8.30;;;11.10;77.70;;;;;;6289504;28;20229;-80
2023/04/15 14:48:08;;;;;;;9.33;8.73;;;11.10;77.70;;;;;;6284077;28;20237;-78
2023/04/15 14:51:11;;;;;;;9.63;8.97;;;11.10;77.50;;;;;;6286946;28;20238;-78
2023/04/15 14:54:15;;;;;;;8.27;7.77;;;11.10;77.60;;;;;;6289090;28;20244;-79
2023/04/15 14:57:18;;;;;;;8.50;8.10;;;11.00;77.70;;;;;;6285653;28;20237;-79
2023/04/15 15:00:22;;;;;;;8.40;7.87;;;11.00;77.80;;;;;;6289501;28;20248;-79
2023/04/15 15:03:26;;;;;;;8.13;7.73;;;11.00;77.80;;;;;;6288895;28;20237;-79
2023/04/15 15:06:30;;;;;;;8.07;7.67;;;10.90;78.00;;;;;;6284833;28;20427;-82
2023/04/15 15:09:33;;;;;;;9.00;8.50;;;10.90;78.10;;;;;;6279964;28;20399;-80
2023/04/15 15:12:37;;;;;;;8.90;8.40;;;10.90;78.20;;;;;;6285682;28;20258;-79
2023/04/15 15:15:41;;;;;;;8.83;8.33;;;10.90;78.20;;;;;;6286068;28;20639;-81
2023/04/15 15:18:45;;;;;;;7.90;7.50;;;10.90;78.30;;;;;;6287752;28;20233;-79
2023/04/15 15:21:48;;;;;;;7.87;7.47;;;10.80;78.40;;;;;;6285132;27;20244;-81
2023/04/15 15:24:52;;;;;;;7.53;7.07;;;10.80;78.40;;;;;;6285503;28;20237;-81
2023/04/15 15:27:55;;;;;;;8.50;7.97;;;10.80;78.50;;;;;;6285741;28;20339;-80
2023/04/15 15:30:59;;;;;;;7.23;6.93;;;10.80;78.60;;;;;;6287120;28;20304;-81
2023/04/15 15:34:04;;;;;;;7.40;7.00;;;10.80;78.70;;;;;;6286927;28;20299;-80
2023/04/15 15:37:07;;;;;;;8.93;8.13;;;10.80;78.70;;;;;;6284430;28;20239;-80
2023/04/15 15:40:11;;;;;;;7.30;6.90;;;10.80;78.60;;;;;;6286735;28;20272;-78